createdAt,value
2023-05-05T00:00:50.512Z,1008.14
2023-05-05T00:01:50.558Z,1008.16
2023-05-05T00:02:50.501Z,1008.15
2023-05-05T00:03:50.618Z,1008.15
2023-05-05T00:04:50.599Z,1008.13
2023-05-05T00:05:50.530Z,1008.14
2023-05-05T00:06:50.450Z,1008.12
2023-05-05T00:07:50.466Z,1008.10
2023-05-05T00:08:50.440Z,1008.08
2023-05-05T00:09:50.447Z,1008.06
2023-05-05T00:10:50.436Z,1008.05
2023-05-05T00:11:50.415Z,1008.04
2023-05-05T00:12:50.435Z,1008.04
2023-05-05T00:13:50.397Z,1008.02
2023-05-05T00:14:50.368Z,1008.03
2023-05-05T00:15:50.388Z,1008.02
2023-05-05T00:16:50.443Z,1008.02
2023-05-05T00:17:50.388Z,1008.01
2023-05-05T00:18:50.358Z,1008.01
2023-05-05T00:19:50.370Z,1008.01
2023-05-05T00:20:50.329Z,1008.01
2023-05-05T00:21:50.342Z,1008.02
2023-05-05T00:22:50.337Z,1008.00
2023-05-05T00:23:50.298Z,1007.99
2023-05-05T00:24:50.269Z,1007.98
2023-05-05T00:25:50.279Z,1007.98
2023-05-05T00:26:50.243Z,1007.97
2023-05-05T00:27:50.248Z,1007.96
2023-05-05T00:28:50.253Z,1007.96
2023-05-05T00:29:50.230Z,1007.95
2023-05-05T00:30:50.216Z,1007.94
2023-05-05T00:31:50.210Z,1007.93
2023-05-05T00:32:50.195Z,1007.93
2023-05-05T00:33:50.188Z,1007.91
2023-05-05T00:34:50.180Z,1007.91
2023-05-05T00:35:50.177Z,1007.89
2023-05-05T00:36:50.151Z,1007.89
2023-05-05T00:37:50.145Z,1007.88
2023-05-05T00:38:50.113Z,1007.86
2023-05-05T00:39:50.145Z,1007.86
2023-05-05T00:40:50.130Z,1007.85
2023-05-05T00:41:50.108Z,1007.87
2023-05-05T00:42:50.076Z,1007.87
2023-05-05T00:43:50.098Z,1007.87
2023-05-05T00:44:50.064Z,1007.87
2023-05-05T00:45:50.060Z,1007.86
2023-05-05T00:46:50.132Z,1007.87
2023-05-05T00:47:50.079Z,1007.86
2023-05-05T00:48:50.032Z,1007.84
2023-05-05T00:49:50.015Z,1007.83
2023-05-05T00:50:50.000Z,1007.82
2023-05-05T00:51:50.000Z,1007.80
2023-05-05T00:52:49.978Z,1007.78
2023-05-05T00:53:49.982Z,1007.78
2023-05-05T00:54:49.961Z,1007.76
2023-05-05T00:55:49.961Z,1007.74
2023-05-05T00:56:49.930Z,1007.73
2023-05-05T00:57:49.959Z,1007.71
2023-05-05T00:58:49.944Z,1007.71
2023-05-05T00:59:49.919Z,1007.72
2023-05-05T01:00:49.888Z,1007.73
2023-05-05T01:01:49.939Z,1007.71
2023-05-05T01:02:49.918Z,1007.71
2023-05-05T01:03:49.929Z,1007.70
2023-05-05T01:04:49.875Z,1007.68
2023-05-05T01:05:49.855Z,1007.67
2023-05-05T01:06:49.820Z,1007.67
2023-05-05T01:07:49.839Z,1007.69
2023-05-05T01:08:49.810Z,1007.70
2023-05-05T01:09:53.585Z,1007.70
2023-05-05T01:10:49.794Z,1007.68
2023-05-05T01:11:49.788Z,1007.67
2023-05-05T01:12:49.784Z,1007.64
2023-05-05T01:13:49.789Z,1007.63
2023-05-05T01:14:49.748Z,1007.61
2023-05-05T01:15:49.773Z,1007.59
2023-05-05T01:16:49.735Z,1007.58
2023-05-05T01:17:49.750Z,1007.56
2023-05-05T01:18:49.701Z,1007.55
2023-05-05T01:19:49.733Z,1007.55
2023-05-05T01:20:49.672Z,1007.54
2023-05-05T01:21:49.686Z,1007.54
2023-05-05T01:22:49.685Z,1007.55
2023-05-05T01:23:49.664Z,1007.55
2023-05-05T01:24:49.620Z,1007.54
2023-05-05T01:25:49.644Z,1007.53
2023-05-05T01:26:49.616Z,1007.52
2023-05-05T01:27:49.618Z,1007.51
2023-05-05T01:28:49.619Z,1007.50
2023-05-05T01:29:49.600Z,1007.48
2023-05-05T01:30:49.562Z,1007.46
2023-05-05T01:31:49.626Z,1007.45
2023-05-05T01:32:49.610Z,1007.44
2023-05-05T01:33:49.570Z,1007.44
2023-05-05T01:34:49.657Z,1007.45
2023-05-05T01:35:49.533Z,1007.46
2023-05-05T01:36:49.511Z,1007.46
2023-05-05T01:37:49.507Z,1007.46
2023-05-05T01:38:49.477Z,1007.46
2023-05-05T01:39:49.488Z,1007.48
2023-05-05T01:40:49.477Z,1007.48
2023-05-05T01:41:49.479Z,1007.50
2023-05-05T01:42:49.434Z,1007.53
2023-05-05T01:43:49.449Z,1007.54
2023-05-05T01:44:49.422Z,1007.55
2023-05-05T01:45:49.532Z,1007.53
2023-05-05T01:46:49.416Z,1007.53
2023-05-05T01:47:49.435Z,1007.53
2023-05-05T01:48:49.378Z,1007.52
2023-05-05T01:49:49.391Z,1007.51
2023-05-05T01:50:49.349Z,1007.50
2023-05-05T01:51:49.376Z,1007.50
2023-05-05T01:52:49.351Z,1007.50
2023-05-05T01:53:49.337Z,1007.50
2023-05-05T01:54:49.304Z,1007.52
2023-05-05T01:55:49.325Z,1007.52
2023-05-05T01:56:49.296Z,1007.52
2023-05-05T01:57:49.298Z,1007.52
2023-05-05T01:58:49.298Z,1007.51
2023-05-05T01:59:49.276Z,1007.51
2023-05-05T02:00:49.256Z,1007.53
2023-05-05T02:01:49.256Z,1007.53
2023-05-05T02:02:49.444Z,1007.54
2023-05-05T02:03:49.260Z,1007.53
2023-05-05T02:04:49.242Z,1007.51
2023-05-05T02:05:49.234Z,1007.50
2023-05-05T02:06:49.190Z,1007.49
2023-05-05T02:07:49.189Z,1007.49
2023-05-05T02:08:49.163Z,1007.47
2023-05-05T02:09:49.171Z,1007.44
2023-05-05T02:10:49.164Z,1007.43
2023-05-05T02:11:49.170Z,1007.40
2023-05-05T02:12:49.133Z,1007.39
2023-05-05T02:13:49.155Z,1007.38
2023-05-05T02:14:49.095Z,1007.39
2023-05-05T02:15:49.158Z,1007.39
2023-05-05T02:16:49.097Z,1007.40
2023-05-05T02:17:49.111Z,1007.41
2023-05-05T02:18:49.068Z,1007.44
2023-05-05T02:19:49.079Z,1007.47
2023-05-05T02:20:49.037Z,1007.50
2023-05-05T02:21:49.047Z,1007.51
2023-05-05T02:22:49.067Z,1007.52
2023-05-05T02:23:49.039Z,1007.54
2023-05-05T02:24:49.009Z,1007.54
2023-05-05T02:25:49.005Z,1007.54
2023-05-05T02:26:48.975Z,1007.54
2023-05-05T02:27:48.995Z,1007.51
2023-05-05T02:28:49.003Z,1007.50
2023-05-05T02:29:48.937Z,1007.50
2023-05-05T02:30:48.969Z,1007.50
2023-05-05T02:31:49.015Z,1007.51
2023-05-05T02:32:48.999Z,1007.49
2023-05-05T02:33:48.912Z,1007.50
2023-05-05T02:34:48.945Z,1007.50
2023-05-05T02:35:48.877Z,1007.48
2023-05-05T02:36:48.900Z,1007.46
2023-05-05T02:37:48.864Z,1007.44
2023-05-05T02:38:48.897Z,1007.43
2023-05-05T02:39:48.852Z,1007.47
2023-05-05T02:40:48.882Z,1007.50
2023-05-05T02:41:48.817Z,1007.52
2023-05-05T02:42:48.851Z,1007.54
2023-05-05T02:43:48.803Z,1007.56
2023-05-05T02:44:48.808Z,1007.55
2023-05-05T02:45:48.785Z,1007.57
2023-05-05T02:46:48.840Z,1007.57
2023-05-05T02:47:48.787Z,1007.58
2023-05-05T02:48:48.775Z,1007.58
2023-05-05T02:49:48.758Z,1007.58
2023-05-05T02:50:48.742Z,1007.59
2023-05-05T02:51:48.712Z,1007.59
2023-05-05T02:52:48.739Z,1007.60
2023-05-05T02:53:48.693Z,1007.63
2023-05-05T02:54:48.721Z,1007.63
2023-05-05T02:55:48.669Z,1007.64
2023-05-05T02:56:48.685Z,1007.64
2023-05-05T02:57:48.662Z,1007.63
2023-05-05T02:58:48.689Z,1007.63
2023-05-05T02:59:48.651Z,1007.63
2023-05-05T03:00:48.634Z,1007.64
2023-05-05T03:01:48.634Z,1007.65
2023-05-05T03:02:48.727Z,1007.66
2023-05-05T03:03:48.709Z,1007.67
2023-05-05T03:04:48.628Z,1007.67
2023-05-05T03:05:48.557Z,1007.68
2023-05-05T03:06:48.579Z,1007.68
2023-05-05T03:07:48.540Z,1007.69
2023-05-05T03:08:48.551Z,1007.70
2023-05-05T03:09:48.520Z,1007.71
2023-05-05T03:10:48.554Z,1007.70
2023-05-05T03:11:48.495Z,1007.70
2023-05-05T03:12:48.596Z,1007.70
2023-05-05T03:13:48.489Z,1007.69
2023-05-05T03:14:48.493Z,1007.70
2023-05-05T03:15:48.453Z,1007.70
2023-05-05T03:16:48.480Z,1007.70
2023-05-05T03:17:48.507Z,1007.70
2023-05-05T03:18:48.444Z,1007.69
2023-05-05T03:19:48.412Z,1007.69
2023-05-05T03:20:48.433Z,1007.70
2023-05-05T03:21:48.388Z,1007.70
2023-05-05T03:22:48.421Z,1007.70
2023-05-05T03:23:48.388Z,1007.70
2023-05-05T03:24:48.411Z,1007.72
2023-05-05T03:25:48.352Z,1007.73
2023-05-05T03:26:48.359Z,1007.73
2023-05-05T03:27:48.325Z,1007.74
2023-05-05T03:28:48.365Z,1007.73
2023-05-05T03:29:48.302Z,1007.72
2023-05-05T03:30:48.311Z,1007.71
2023-05-05T03:31:48.328Z,1007.70
2023-05-05T03:32:48.347Z,1007.70
2023-05-05T03:33:48.275Z,1007.69
2023-05-05T03:34:48.303Z,1007.68
2023-05-05T03:35:48.241Z,1007.67
2023-05-05T03:36:48.264Z,1007.68
2023-05-05T03:37:48.235Z,1007.67
2023-05-05T03:38:48.239Z,1007.68
2023-05-05T03:39:48.283Z,1007.68
2023-05-05T03:40:48.241Z,1007.68
2023-05-05T03:41:48.204Z,1007.69
2023-05-05T03:42:48.192Z,1007.70
2023-05-05T03:43:48.153Z,1007.70
2023-05-05T03:44:48.180Z,1007.71
2023-05-05T03:45:48.197Z,1007.71
2023-05-05T03:46:48.175Z,1007.72
2023-05-05T03:47:48.152Z,1007.73
2023-05-05T03:48:48.139Z,1007.75
2023-05-05T03:49:48.094Z,1007.76
2023-05-05T03:50:48.116Z,1007.76
2023-05-05T03:51:48.069Z,1007.75
2023-05-05T03:52:48.100Z,1007.74
2023-05-05T03:53:48.049Z,1007.75
2023-05-05T03:54:48.064Z,1007.75
2023-05-05T03:55:48.046Z,1007.75
2023-05-05T03:56:48.051Z,1007.79
2023-05-05T03:57:48.011Z,1007.78
2023-05-05T03:58:48.057Z,1007.78
2023-05-05T03:59:48.010Z,1007.77
2023-05-05T04:00:48.003Z,1007.79
2023-05-05T04:01:47.973Z,1007.79
2023-05-05T04:02:48.043Z,1007.80
2023-05-05T04:03:48.046Z,1007.81
2023-05-05T04:04:47.987Z,1007.84
2023-05-05T04:05:47.930Z,1007.86
2023-05-05T04:06:47.943Z,1007.88
2023-05-05T04:07:47.905Z,1007.89
2023-05-05T04:08:47.918Z,1007.88
2023-05-05T04:09:47.907Z,1007.87
2023-05-05T04:10:47.918Z,1007.89
2023-05-05T04:11:47.864Z,1007.90
2023-05-05T04:12:47.922Z,1007.89
2023-05-05T04:13:47.866Z,1007.88
2023-05-05T04:14:47.854Z,1007.90
2023-05-05T04:15:47.859Z,1007.91
2023-05-05T04:16:47.890Z,1007.91
2023-05-05T04:17:47.817Z,1007.89
2023-05-05T04:18:47.829Z,1007.89
2023-05-05T04:19:47.786Z,1007.90
2023-05-05T04:20:47.802Z,1007.90
2023-05-05T04:21:47.772Z,1007.91
2023-05-05T04:22:47.821Z,1007.92
2023-05-05T04:23:47.745Z,1007.94
2023-05-05T04:24:47.757Z,1007.96
2023-05-05T04:25:47.733Z,1007.97
2023-05-05T04:26:47.737Z,1007.97
2023-05-05T04:27:47.704Z,1007.96
2023-05-05T04:28:47.742Z,1007.97
2023-05-05T04:29:47.676Z,1007.99
2023-05-05T04:30:47.692Z,1008.00
2023-05-05T04:31:47.695Z,1007.98
2023-05-05T04:32:47.706Z,1007.97
2023-05-05T04:33:47.636Z,1007.99
2023-05-05T04:34:47.700Z,1007.98
2023-05-05T04:35:47.627Z,1007.98
2023-05-05T04:36:47.624Z,1007.99
2023-05-05T04:37:47.596Z,1007.99
2023-05-05T04:38:47.644Z,1008.00
2023-05-05T04:39:47.572Z,1008.00
2023-05-05T04:40:47.602Z,1007.99
2023-05-05T04:41:47.556Z,1007.99
2023-05-05T04:42:47.567Z,1008.01
2023-05-05T04:43:47.533Z,1008.02
2023-05-05T04:44:47.555Z,1008.03
2023-05-05T04:45:47.508Z,1008.04
2023-05-05T04:46:47.566Z,1008.05
2023-05-05T04:47:47.521Z,1008.06
2023-05-05T04:48:47.503Z,1008.06
2023-05-05T04:49:47.473Z,1008.04
2023-05-05T04:50:47.487Z,1008.02
2023-05-05T04:51:47.448Z,1008.02
2023-05-05T04:52:47.493Z,1008.03
2023-05-05T04:53:47.425Z,1008.05
2023-05-05T04:54:47.435Z,1008.09
2023-05-05T04:55:47.413Z,1008.12
2023-05-05T04:56:47.419Z,1008.12
2023-05-05T04:57:47.391Z,1008.12
2023-05-05T04:58:47.448Z,1008.12
2023-05-05T04:59:47.385Z,1008.14
2023-05-05T05:00:47.375Z,1008.17
2023-05-05T05:01:47.387Z,1008.18
2023-05-05T05:02:47.442Z,1008.18
2023-05-05T05:03:47.436Z,1008.18
2023-05-05T05:04:47.363Z,1008.17
2023-05-05T05:05:47.303Z,1008.17
2023-05-05T05:06:47.306Z,1008.17
2023-05-05T05:07:47.318Z,1008.18
2023-05-05T05:08:47.286Z,1008.20
2023-05-05T05:09:47.259Z,1008.21
2023-05-05T05:10:47.291Z,1008.22
2023-05-05T05:11:47.237Z,1008.22
2023-05-05T05:12:47.264Z,1008.22
2023-05-05T05:13:47.219Z,1008.22
2023-05-05T05:14:47.224Z,1008.23
2023-05-05T05:15:47.194Z,1008.25
2023-05-05T05:16:47.266Z,1008.26
2023-05-05T05:17:47.248Z,1008.27
2023-05-05T05:18:47.183Z,1008.28
2023-05-05T05:19:47.147Z,1008.28
2023-05-05T05:20:47.167Z,1008.29
2023-05-05T05:21:47.119Z,1008.28
2023-05-05T05:22:47.170Z,1008.27
2023-05-05T05:23:47.104Z,1008.27
2023-05-05T05:24:47.122Z,1008.28
2023-05-05T05:25:47.111Z,1008.30
2023-05-05T05:26:47.095Z,1008.34
2023-05-05T05:27:52.288Z,1008.35
2023-05-05T05:28:47.123Z,1008.37
2023-05-05T05:29:47.040Z,1008.39
2023-05-05T05:30:47.064Z,1008.40
2023-05-05T05:31:47.050Z,1008.40
2023-05-05T05:32:47.072Z,1008.40
2023-05-05T05:33:47.000Z,1008.40
2023-05-05T05:34:47.024Z,1008.40
2023-05-05T05:35:46.982Z,1008.41
2023-05-05T05:36:47.004Z,1008.42
2023-05-05T05:37:46.955Z,1008.43
2023-05-05T05:38:46.980Z,1008.45
2023-05-05T05:39:46.935Z,1008.46
2023-05-05T05:40:46.988Z,1008.47
2023-05-05T05:41:46.926Z,1008.47
2023-05-05T05:42:46.935Z,1008.47
2023-05-05T05:43:46.913Z,1008.48
2023-05-05T05:44:46.913Z,1008.47
2023-05-05T05:45:46.894Z,1008.49
2023-05-05T05:46:46.937Z,1008.50
2023-05-05T05:47:46.869Z,1008.51
2023-05-05T05:48:46.951Z,1008.52
2023-05-05T05:49:46.834Z,1008.52
2023-05-05T05:50:46.844Z,1008.54
2023-05-05T05:51:46.801Z,1008.55
2023-05-05T05:52:46.833Z,1008.58
2023-05-05T05:53:46.797Z,1008.60
2023-05-05T05:54:46.808Z,1008.62
2023-05-05T05:55:46.766Z,1008.64
2023-05-05T05:56:46.786Z,1008.65
2023-05-05T05:57:46.754Z,1008.65
2023-05-05T05:58:46.787Z,1008.64
2023-05-05T05:59:46.730Z,1008.64
2023-05-05T06:00:46.731Z,1008.65
2023-05-05T06:01:46.700Z,1008.66
2023-05-05T06:02:46.826Z,1008.66
2023-05-05T06:03:46.809Z,1008.67
2023-05-05T06:04:46.717Z,1008.68
2023-05-05T06:05:46.658Z,1008.68
2023-05-05T06:06:46.668Z,1008.69
2023-05-05T06:07:46.650Z,1008.71
2023-05-05T06:08:46.663Z,1008.72
2023-05-05T06:09:46.610Z,1008.73
2023-05-05T06:10:46.648Z,1008.75
2023-05-05T06:11:46.594Z,1008.75
2023-05-05T06:12:46.620Z,1008.76
2023-05-05T06:13:46.571Z,1008.79
2023-05-05T06:14:46.592Z,1008.81
2023-05-05T06:15:46.568Z,1008.82
2023-05-05T06:16:46.575Z,1008.85
2023-05-05T06:17:46.636Z,1008.84
2023-05-05T06:18:46.557Z,1008.85
2023-05-05T06:19:46.521Z,1008.86
2023-05-05T06:20:46.538Z,1008.87
2023-05-05T06:21:46.502Z,1008.87
2023-05-05T06:22:46.514Z,1008.87
2023-05-05T06:23:46.469Z,1008.88
2023-05-05T06:24:46.497Z,1008.86
2023-05-05T06:25:46.454Z,1008.86
2023-05-05T06:26:46.457Z,1008.85
2023-05-05T06:27:46.460Z,1008.85
2023-05-05T06:28:46.459Z,1008.86
2023-05-05T06:29:46.417Z,1008.86
2023-05-05T06:30:46.442Z,1008.88
2023-05-05T06:31:46.450Z,1008.88
2023-05-05T06:32:46.434Z,1008.91
2023-05-05T06:33:46.365Z,1008.93
2023-05-05T06:34:46.387Z,1008.93
2023-05-05T06:35:46.343Z,1008.93
2023-05-05T06:36:46.405Z,1008.94
2023-05-05T06:37:46.325Z,1008.93
2023-05-05T06:38:46.356Z,1008.93
2023-05-05T06:39:46.302Z,1008.92
2023-05-05T06:40:46.326Z,1008.93
2023-05-05T06:41:46.274Z,1008.93
2023-05-05T06:42:46.310Z,1008.92
2023-05-05T06:43:46.287Z,1008.93
2023-05-05T06:44:46.252Z,1008.92
2023-05-05T06:45:46.299Z,1008.93
2023-05-05T06:46:46.302Z,1008.93
2023-05-05T06:47:46.291Z,1008.94
2023-05-05T06:48:46.212Z,1008.94
2023-05-05T06:49:46.224Z,1008.93
2023-05-05T06:50:46.190Z,1008.95
2023-05-05T06:51:46.208Z,1008.94
2023-05-05T06:52:46.180Z,1008.96
2023-05-05T06:53:46.174Z,1008.95
2023-05-05T06:54:46.138Z,1008.97
2023-05-05T06:55:46.154Z,1008.95
2023-05-05T06:56:46.138Z,1008.96
2023-05-05T06:57:46.142Z,1008.95
2023-05-05T06:58:46.130Z,1008.97
2023-05-05T06:59:46.112Z,1008.97
2023-05-05T07:00:46.137Z,1008.98
2023-05-05T07:01:46.093Z,1008.99
2023-05-05T07:02:46.090Z,1008.99
2023-05-05T07:03:46.125Z,1008.99
2023-05-05T07:04:46.059Z,1009.00
2023-05-05T07:05:46.058Z,1008.99
2023-05-05T07:06:46.029Z,1008.98
2023-05-05T07:07:46.050Z,1008.97
2023-05-05T07:08:46.004Z,1008.95
2023-05-05T07:09:46.010Z,1008.94
2023-05-05T07:10:45.995Z,1008.95
2023-05-05T07:11:45.999Z,1008.92
2023-05-05T07:12:45.990Z,1008.89
2023-05-05T07:13:45.966Z,1008.90
2023-05-05T07:14:45.935Z,1008.89
2023-05-05T07:15:45.952Z,1008.88
2023-05-05T07:16:45.974Z,1008.89
2023-05-05T07:17:45.945Z,1008.88
2023-05-05T07:18:45.888Z,1008.88
2023-05-05T07:19:45.904Z,1008.90
2023-05-05T07:20:45.869Z,1008.91
2023-05-05T07:21:45.889Z,1008.92
2023-05-05T07:22:45.884Z,1008.93
2023-05-05T07:23:45.860Z,1008.98
2023-05-05T07:24:45.824Z,1009.01
2023-05-05T07:25:45.839Z,1009.00
2023-05-05T07:26:45.825Z,1009.00
2023-05-05T07:27:45.820Z,1009.03
2023-05-05T07:28:45.817Z,1009.02
2023-05-05T07:29:45.793Z,1009.06
2023-05-05T07:30:45.765Z,1009.07
2023-05-05T07:31:45.890Z,1009.10
2023-05-05T07:32:45.791Z,1009.11
2023-05-05T07:33:45.758Z,1009.11
2023-05-05T07:34:45.750Z,1009.11
2023-05-05T07:35:45.737Z,1009.12
2023-05-05T07:36:45.712Z,1009.14
2023-05-05T07:37:45.737Z,1009.16
2023-05-05T07:38:45.676Z,1009.14
2023-05-05T07:39:45.699Z,1009.18
2023-05-05T07:40:45.688Z,1009.17
2023-05-05T07:41:45.693Z,1009.17
2023-05-05T07:42:45.724Z,1009.15
2023-05-05T07:43:45.648Z,1009.13
2023-05-05T07:44:45.617Z,1009.11
2023-05-05T07:45:45.740Z,1009.09
2023-05-05T07:46:45.618Z,1009.10
2023-05-05T07:47:45.643Z,1009.08
2023-05-05T07:48:45.569Z,1009.08
2023-05-05T07:49:45.581Z,1009.09
2023-05-05T07:50:45.560Z,1009.09
2023-05-05T07:51:45.561Z,1009.09
2023-05-05T07:52:49.891Z,1009.08
2023-05-05T07:53:45.539Z,1009.08
2023-05-05T07:54:45.509Z,1009.09
2023-05-05T07:55:45.512Z,1009.08
2023-05-05T07:56:45.489Z,1009.06
2023-05-05T07:57:45.531Z,1009.04
2023-05-05T07:58:45.487Z,1009.04
2023-05-05T07:59:45.481Z,1009.05
2023-05-05T08:00:45.442Z,1009.05
2023-05-05T08:01:45.470Z,1009.07
2023-05-05T08:02:45.489Z,1009.08
2023-05-05T08:03:45.613Z,1009.09
2023-05-05T08:04:45.480Z,1009.11
2023-05-05T08:05:45.409Z,1009.12
2023-05-05T08:06:45.377Z,1009.15
2023-05-05T08:07:45.405Z,1009.16
2023-05-05T08:08:45.357Z,1009.18
2023-05-05T08:09:45.368Z,1009.18
2023-05-05T08:10:45.364Z,1009.19
2023-05-05T08:11:45.350Z,1009.20
2023-05-05T08:12:45.360Z,1009.19
2023-05-05T08:13:45.337Z,1009.19
2023-05-05T08:14:45.299Z,1009.21
2023-05-05T08:15:45.434Z,1009.20
2023-05-05T08:16:45.288Z,1009.19
2023-05-05T08:17:45.335Z,1009.19
2023-05-05T08:18:45.253Z,1009.21
2023-05-05T08:19:45.275Z,1009.22
2023-05-05T08:20:45.237Z,1009.22
2023-05-05T08:21:45.246Z,1009.25
2023-05-05T08:22:45.329Z,1009.28
2023-05-05T08:23:45.240Z,1009.30
2023-05-05T08:24:45.188Z,1009.36
2023-05-05T08:25:45.196Z,1009.39
2023-05-05T08:26:45.188Z,1009.40
2023-05-05T08:27:45.179Z,1009.43
2023-05-05T08:28:45.167Z,1009.44
2023-05-05T08:29:45.162Z,1009.45
2023-05-05T08:30:45.134Z,1009.43
2023-05-05T08:31:45.191Z,1009.49
2023-05-05T08:32:45.143Z,1009.50
2023-05-05T08:33:45.146Z,1009.49
2023-05-05T08:34:45.095Z,1009.48
2023-05-05T08:35:45.095Z,1009.46
2023-05-05T08:36:45.065Z,1009.45
2023-05-05T08:37:45.084Z,1009.46
2023-05-05T08:38:45.044Z,1009.48
2023-05-05T08:39:45.058Z,1009.48
2023-05-05T08:40:45.039Z,1009.48
2023-05-05T08:41:45.036Z,1009.50
2023-05-05T08:42:44.996Z,1009.51
2023-05-05T08:43:45.018Z,1009.53
2023-05-05T08:44:44.985Z,1009.52
2023-05-05T08:45:44.986Z,1009.56
2023-05-05T08:46:45.030Z,1009.54
2023-05-05T08:47:45.000Z,1009.53
2023-05-05T08:48:44.937Z,1009.50
2023-05-05T08:49:44.952Z,1009.53
2023-05-05T08:50:44.912Z,1009.53
2023-05-05T08:51:44.924Z,1009.52
2023-05-05T08:52:45.167Z,1009.48
2023-05-05T08:53:44.959Z,1009.48
2023-05-05T08:54:44.870Z,1009.46
2023-05-05T08:55:44.885Z,1009.46
2023-05-05T08:56:44.846Z,1009.47
2023-05-05T08:57:44.868Z,1009.46
2023-05-05T08:58:44.875Z,1009.42
2023-05-05T08:59:44.848Z,1009.42
2023-05-05T09:00:44.818Z,1009.40
2023-05-05T09:01:44.814Z,1009.42
2023-05-05T09:02:44.833Z,1009.42
2023-05-05T09:03:44.808Z,1009.41
2023-05-05T09:04:44.786Z,1009.42
2023-05-05T09:05:44.787Z,1009.42
2023-05-05T09:06:44.740Z,1009.41
2023-05-05T09:07:44.762Z,1009.42
2023-05-05T09:08:44.718Z,1009.43
2023-05-05T09:09:44.736Z,1009.43
2023-05-05T09:10:44.865Z,1009.42
2023-05-05T09:11:44.708Z,1009.40
2023-05-05T09:12:44.734Z,1009.38
2023-05-05T09:13:44.690Z,1009.36
2023-05-05T09:14:44.662Z,1009.36
2023-05-05T09:15:44.673Z,1009.35
2023-05-05T09:16:44.668Z,1009.34
2023-05-05T09:17:44.738Z,1009.35
2023-05-05T09:18:44.628Z,1009.35
2023-05-05T09:19:44.627Z,1009.33
2023-05-05T09:20:44.590Z,1009.33
2023-05-05T09:21:44.648Z,1009.31
2023-05-05T09:22:44.629Z,1009.31
2023-05-05T09:23:44.587Z,1009.30
2023-05-05T09:24:44.564Z,1009.29
2023-05-05T09:25:44.581Z,1009.32
2023-05-05T09:26:44.537Z,1009.32
2023-05-05T09:27:44.573Z,1009.40
2023-05-05T09:28:44.537Z,1009.37
2023-05-05T09:29:44.527Z,1009.37
2023-05-05T09:30:44.514Z,1009.36
2023-05-05T09:31:44.517Z,1009.34
2023-05-05T09:32:44.502Z,1009.31
2023-05-05T09:33:44.478Z,1009.29
2023-05-05T09:34:44.461Z,1009.30
2023-05-05T09:35:44.488Z,1009.28
2023-05-05T09:36:44.428Z,1009.26
2023-05-05T09:37:44.441Z,1009.23
2023-05-05T09:38:44.417Z,1009.23
2023-05-05T09:39:44.419Z,1009.22
2023-05-05T09:40:44.407Z,1009.26
2023-05-05T09:41:44.409Z,1009.27
2023-05-05T09:42:44.373Z,1009.26
2023-05-05T09:43:44.376Z,1009.24
2023-05-05T09:44:44.346Z,1009.22
2023-05-05T09:45:44.363Z,1009.19
2023-05-05T09:46:44.385Z,1009.19
2023-05-05T09:47:44.361Z,1009.20
2023-05-05T09:48:44.305Z,1009.23
2023-05-05T09:49:44.324Z,1009.17
2023-05-05T09:50:44.281Z,1009.16
2023-05-05T09:51:44.296Z,1009.15
2023-05-05T09:52:44.647Z,1009.15
2023-05-05T09:53:44.275Z,1009.15
2023-05-05T09:54:44.252Z,1009.15
2023-05-05T09:55:44.258Z,1009.15
2023-05-05T09:56:44.226Z,1009.13
2023-05-05T09:57:44.234Z,1009.10
2023-05-05T09:58:44.243Z,1009.10
2023-05-05T09:59:44.213Z,1009.06
2023-05-05T10:00:44.188Z,1009.05
2023-05-05T10:01:44.253Z,1009.02
2023-05-05T10:02:44.186Z,1009.07
2023-05-05T10:03:44.171Z,1009.03
2023-05-05T10:04:44.229Z,1009.05
2023-05-05T10:05:44.148Z,1009.03
2023-05-05T10:06:44.128Z,1009.07
2023-05-05T10:07:44.143Z,1009.06
2023-05-05T10:08:44.107Z,1009.09
2023-05-05T10:09:44.119Z,1009.05
2023-05-05T10:10:44.097Z,1009.02
2023-05-05T10:11:44.094Z,1009.02
2023-05-05T10:12:44.084Z,1009.04
2023-05-05T10:13:44.077Z,1009.05
2023-05-05T10:14:44.037Z,1009.05
2023-05-05T10:15:44.085Z,1009.04
2023-05-05T10:16:44.072Z,1009.05
2023-05-05T10:17:53.948Z,1009.03
2023-05-05T10:18:43.995Z,1009.03
2023-05-05T10:19:44.014Z,1009.06
2023-05-05T10:20:43.976Z,1009.03
2023-05-05T10:21:43.990Z,1009.03
2023-05-05T10:22:43.970Z,1009.04
2023-05-05T10:23:43.993Z,1009.04
2023-05-05T10:24:43.947Z,1008.99
2023-05-05T10:25:43.956Z,1008.99
2023-05-05T10:26:43.916Z,1008.98
2023-05-05T10:27:43.943Z,1008.94
2023-05-05T10:28:43.920Z,1008.90
2023-05-05T10:29:43.906Z,1008.86
2023-05-05T10:30:43.875Z,1008.82
2023-05-05T10:31:43.916Z,1008.81
2023-05-05T10:33:43.925Z,1008.82
2023-05-05T10:34:43.983Z,1008.78
2023-05-05T10:35:43.843Z,1008.78
2023-05-05T10:36:43.809Z,1008.75
2023-05-05T10:37:43.830Z,1008.76
2023-05-05T10:38:43.791Z,1008.76
2023-05-05T10:39:43.816Z,1008.75
2023-05-05T10:40:43.793Z,1008.72
2023-05-05T10:41:43.786Z,1008.73
2023-05-05T10:42:43.770Z,1008.72
2023-05-05T10:43:43.816Z,1008.69
2023-05-05T10:44:43.740Z,1008.68
2023-05-05T10:45:43.872Z,1008.69
2023-05-05T10:46:43.766Z,1008.66
2023-05-05T10:47:43.781Z,1008.67
2023-05-05T10:48:43.719Z,1008.65
2023-05-05T10:49:43.702Z,1008.65
2023-05-05T10:50:43.686Z,1008.67
2023-05-05T10:51:43.694Z,1008.67
2023-05-05T10:52:43.685Z,1008.70
2023-05-05T10:53:43.728Z,1008.67
2023-05-05T10:54:43.635Z,1008.63
2023-05-05T10:55:43.666Z,1008.61
2023-05-05T10:56:43.615Z,1008.55
2023-05-05T10:57:43.642Z,1008.56
2023-05-05T10:58:55.535Z,1008.53
2023-05-05T10:59:43.600Z,1008.50
2023-05-05T11:00:43.630Z,1008.49
2023-05-05T11:01:43.569Z,1008.50
2023-05-05T11:02:43.612Z,1008.48
2023-05-05T11:03:43.573Z,1008.46
2023-05-05T11:04:43.573Z,1008.42
2023-05-05T11:05:43.524Z,1008.40
2023-05-05T11:06:43.538Z,1008.36
2023-05-05T11:07:43.509Z,1008.36
2023-05-05T11:08:43.527Z,1008.34
2023-05-05T11:09:43.485Z,1008.30
2023-05-05T11:10:43.917Z,1008.28
2023-05-05T11:11:43.467Z,1008.28
2023-05-05T11:12:43.499Z,1008.29
2023-05-05T11:13:43.450Z,1008.25
2023-05-05T11:14:43.458Z,1008.25
2023-05-05T11:15:43.435Z,1008.24
2023-05-05T11:16:43.505Z,1008.22
2023-05-05T11:17:43.412Z,1008.18
2023-05-05T11:18:43.418Z,1008.14
2023-05-05T11:19:43.398Z,1008.10
2023-05-05T11:20:43.403Z,1008.10
2023-05-05T11:21:43.601Z,1008.11
2023-05-05T11:22:43.402Z,1008.10
2023-05-05T11:23:43.348Z,1008.08
2023-05-05T11:24:43.355Z,1008.13
2023-05-05T11:25:43.337Z,1008.11
2023-05-05T11:26:43.360Z,1008.15
2023-05-05T11:27:43.306Z,1008.17
2023-05-05T11:28:43.329Z,1008.14
2023-05-05T11:29:43.291Z,1008.13
2023-05-05T11:30:43.318Z,1008.15
2023-05-05T11:31:43.266Z,1008.14
2023-05-05T11:32:43.303Z,1008.11
2023-05-05T11:33:43.237Z,1008.14
2023-05-05T11:34:43.270Z,1008.17
2023-05-05T11:35:43.239Z,1008.17
2023-05-05T11:36:43.237Z,1008.08
2023-05-05T11:37:43.208Z,1008.04
2023-05-05T11:38:43.230Z,1008.06
2023-05-05T11:39:43.212Z,1008.04
2023-05-05T11:40:43.235Z,1008.00
2023-05-05T11:41:43.165Z,1007.99
2023-05-05T11:42:43.183Z,1008.02
2023-05-05T11:43:43.146Z,1008.03
2023-05-05T11:44:43.164Z,1008.04
2023-05-05T11:45:43.121Z,1008.01
2023-05-05T11:46:43.232Z,1007.99
2023-05-05T11:47:43.137Z,1008.01
2023-05-05T11:48:43.120Z,1008.05
2023-05-05T11:49:43.083Z,1008.05
2023-05-05T11:50:43.098Z,1008.06
2023-05-05T11:51:43.063Z,1008.06
2023-05-05T11:52:43.092Z,1008.08
2023-05-05T11:53:43.048Z,1008.11
2023-05-05T11:54:43.078Z,1008.11
2023-05-05T11:55:43.020Z,1008.14
2023-05-05T11:56:43.050Z,1008.14
2023-05-05T11:57:42.993Z,1008.15
2023-05-05T11:58:43.035Z,1008.16
2023-05-05T11:59:42.979Z,1008.17
2023-05-05T12:00:43.044Z,1008.16
2023-05-05T12:01:43.122Z,1008.16
2023-05-05T12:02:43.046Z,1008.17
2023-05-05T12:03:43.054Z,1008.16
2023-05-05T12:04:42.993Z,1008.17
2023-05-05T12:05:42.916Z,1008.17
2023-05-05T12:06:42.948Z,1008.17